createdAt,value
2023-08-22T00:01:32.239Z,15.68
2023-08-22T00:03:38.273Z,24.20
2023-08-22T00:05:45.805Z,27.65
2023-08-22T00:07:53.557Z,23.45
2023-08-22T00:10:01.255Z,14.68
2023-08-22T00:12:09.066Z,13.40
2023-08-22T00:14:16.637Z,15.35
2023-08-22T00:16:28.887Z,15.57
2023-08-22T00:18:36.631Z,22.33
2023-08-22T00:20:44.740Z,20.58
2023-08-22T00:22:52.282Z,16.55
2023-08-22T00:24:59.559Z,17.85
2023-08-22T00:27:07.252Z,17.85
2023-08-22T00:29:14.486Z,20.98
2023-08-22T00:31:21.837Z,18.02
2023-08-22T00:33:31.101Z,14.82
2023-08-22T00:35:39.360Z,17.23
2023-08-22T00:37:46.700Z,15.75
2023-08-22T00:39:54.441Z,10.50
2023-08-22T00:42:02.797Z,12.77
2023-08-22T00:44:11.615Z,13.98
2023-08-22T00:46:22.372Z,18.40
2023-08-22T00:48:31.816Z,16.25
2023-08-22T00:50:39.410Z,16.38
2023-08-22T00:52:47.360Z,12.73
2023-08-22T00:54:54.896Z,14.73
2023-08-22T00:57:02.960Z,14.15
2023-08-22T00:59:11.056Z,16.05
2023-08-22T01:01:18.750Z,14.35
2023-08-22T01:03:26.574Z,14.13
2023-08-22T01:05:41.611Z,17.00
2023-08-22T01:07:59.844Z,13.45
2023-08-22T01:10:16.360Z,13.73
2023-08-22T01:12:36.178Z,23.85
2023-08-22T01:14:54.322Z,20.25
2023-08-22T01:17:02.638Z,17.08
2023-08-22T01:19:12.213Z,14.88
2023-08-22T01:21:26.360Z,14.80
2023-08-22T01:23:36.253Z,13.75
2023-08-22T01:25:43.852Z,18.73
2023-08-22T01:28:02.084Z,16.15
2023-08-22T01:30:16.947Z,15.98
2023-08-22T01:32:28.734Z,15.90
2023-08-22T01:34:37.477Z,16.25
2023-08-22T01:36:47.019Z,15.68
2023-08-22T01:38:57.499Z,14.23
2023-08-22T01:41:06.267Z,14.85
2023-08-22T01:43:13.814Z,12.35
2023-08-22T01:45:21.455Z,12.05
2023-08-22T01:47:30.140Z,12.20
2023-08-22T01:49:39.712Z,13.43
2023-08-22T01:51:46.996Z,15.93
2023-08-22T01:53:56.426Z,14.38
2023-08-22T01:56:04.739Z,13.95
2023-08-22T01:58:13.299Z,14.98
2023-08-22T02:00:20.839Z,15.98
2023-08-22T02:02:28.467Z,14.80
2023-08-22T02:04:36.075Z,12.05
2023-08-22T02:06:44.854Z,11.50
2023-08-22T02:08:52.130Z,16.35
2023-08-22T02:11:01.511Z,12.80
2023-08-22T02:13:09.302Z,10.80
2023-08-22T02:15:17.047Z,10.95
2023-08-22T02:17:24.407Z,11.73
2023-08-22T02:19:32.179Z,11.45
2023-08-22T02:21:39.579Z,14.65
2023-08-22T02:23:47.159Z,11.20
2023-08-22T02:25:54.596Z,10.13
2023-08-22T02:28:04.137Z,11.32
2023-08-22T02:30:13.068Z,13.00
2023-08-22T02:32:20.454Z,12.60
2023-08-22T02:34:28.039Z,10.40
2023-08-22T02:36:36.478Z,10.32
2023-08-22T02:38:44.804Z,12.18
2023-08-22T02:40:52.138Z,8.98
2023-08-22T02:42:59.319Z,9.18
2023-08-22T02:45:11.006Z,10.55
2023-08-22T02:47:18.602Z,9.15
2023-08-22T02:49:25.934Z,12.20
2023-08-22T02:51:35.313Z,9.45
2023-08-22T02:53:42.856Z,11.07
2023-08-22T02:55:53.432Z,10.25
2023-08-22T02:58:00.597Z,12.45
2023-08-22T03:00:13.569Z,10.38
2023-08-22T03:02:20.958Z,14.63
2023-08-22T03:04:28.541Z,11.27
2023-08-22T03:06:36.799Z,8.60
2023-08-22T03:08:46.182Z,8.82
2023-08-22T03:10:54.081Z,8.43
2023-08-22T03:13:03.206Z,9.73
2023-08-22T03:15:14.956Z,10.45
2023-08-22T03:17:22.639Z,14.60
2023-08-22T03:19:30.284Z,7.38
2023-08-22T03:21:42.847Z,10.40
2023-08-22T03:23:50.077Z,7.97
2023-08-22T03:26:02.118Z,8.27
2023-08-22T03:28:10.124Z,6.03
2023-08-22T03:30:19.711Z,6.95
2023-08-22T03:32:28.242Z,6.40
2023-08-22T03:34:38.424Z,7.45
2023-08-22T03:36:46.996Z,8.77
2023-08-22T03:38:55.467Z,7.55
2023-08-22T03:41:02.739Z,7.90
2023-08-22T03:43:10.734Z,7.07
2023-08-22T03:45:21.961Z,9.55
2023-08-22T03:47:30.064Z,7.90
2023-08-22T03:49:37.710Z,8.68
2023-08-22T03:51:45.349Z,6.88
2023-08-22T03:53:52.734Z,9.82
2023-08-22T03:56:00.379Z,9.63
2023-08-22T03:58:08.174Z,7.80
2023-08-22T04:00:16.584Z,9.60
2023-08-22T04:02:28.463Z,9.00
2023-08-22T04:04:35.918Z,5.88
2023-08-22T04:06:43.104Z,6.40
2023-08-22T04:08:50.842Z,7.38
2023-08-22T04:10:58.741Z,5.78
2023-08-22T04:13:06.601Z,7.10
2023-08-22T04:15:13.870Z,7.00
2023-08-22T04:17:21.357Z,9.50
2023-08-22T04:19:33.148Z,7.25
2023-08-22T04:21:40.844Z,7.78
2023-08-22T04:23:48.586Z,7.35
2023-08-22T04:25:56.433Z,7.85
2023-08-22T04:28:03.953Z,6.63
2023-08-22T04:30:12.595Z,7.30
2023-08-22T04:32:19.924Z,6.15
2023-08-22T04:34:32.224Z,6.43
2023-08-22T04:36:41.613Z,7.05
2023-08-22T04:38:51.607Z,8.02
2023-08-22T04:41:01.091Z,5.72
2023-08-22T04:43:16.801Z,6.35
2023-08-22T04:45:24.212Z,6.38
2023-08-22T04:47:32.160Z,7.43
2023-08-22T04:49:41.600Z,9.27
2023-08-22T04:51:49.393Z,7.60
2023-08-22T04:53:56.638Z,7.10
2023-08-22T04:56:04.268Z,6.10
2023-08-22T04:58:11.559Z,6.93
2023-08-22T05:00:20.626Z,7.65
2023-08-22T05:02:28.701Z,9.63
2023-08-22T05:04:35.554Z,7.25
2023-08-22T05:06:44.787Z,9.20
2023-08-22T05:08:52.581Z,7.72
2023-08-22T05:10:59.983Z,7.65
2023-08-22T05:13:07.660Z,6.97
2023-08-22T05:15:15.508Z,8.43
2023-08-22T05:17:23.788Z,9.13
2023-08-22T05:19:31.151Z,9.00
2023-08-22T05:21:38.488Z,8.80
2023-08-22T05:23:48.955Z,5.75
2023-08-22T05:25:56.725Z,7.75
2023-08-22T05:28:04.539Z,7.85
2023-08-22T05:30:12.847Z,8.10
2023-08-22T05:32:21.379Z,8.85
2023-08-22T05:34:30.863Z,7.05
2023-08-22T05:36:39.150Z,6.35
2023-08-22T05:38:48.274Z,8.10
2023-08-22T05:40:56.278Z,7.80
2023-08-22T05:43:02.334Z,8.55
2023-08-22T05:45:11.206Z,7.05
2023-08-22T05:47:20.333Z,6.75
2023-08-22T05:49:28.283Z,7.90
2023-08-22T05:51:35.822Z,7.93
2023-08-22T05:53:43.565Z,7.60
2023-08-22T05:55:52.696Z,6.65
2023-08-22T05:58:00.592Z,8.70
2023-08-22T06:00:10.820Z,6.13
2023-08-22T06:02:35.478Z,8.15
2023-08-22T06:04:43.002Z,8.82
2023-08-22T06:06:51.284Z,7.88
2023-08-22T06:08:58.725Z,6.32
2023-08-22T06:11:08.003Z,6.22
2023-08-22T06:13:15.437Z,6.28
2023-08-22T06:15:26.612Z,6.82
2023-08-22T06:17:34.301Z,6.85
2023-08-22T06:19:41.898Z,7.97
2023-08-22T06:21:49.550Z,8.32
2023-08-22T06:23:57.241Z,8.32
2023-08-22T06:26:06.514Z,7.50
2023-08-22T06:28:14.260Z,6.63
2023-08-22T06:30:22.578Z,7.07
2023-08-22T06:32:30.089Z,7.57
2023-08-22T06:34:37.801Z,8.38
2023-08-22T06:36:45.704Z,7.30
2023-08-22T06:38:53.299Z,7.28
2023-08-22T06:41:00.692Z,8.95
2023-08-22T06:43:09.912Z,6.13
2023-08-22T06:45:18.324Z,6.55
2023-08-22T06:47:26.180Z,6.78
2023-08-22T06:49:33.658Z,6.22
2023-08-22T06:51:42.174Z,6.60
2023-08-22T06:53:50.032Z,6.13
2023-08-22T06:55:58.631Z,6.80
2023-08-22T06:58:09.357Z,5.65
2023-08-22T07:00:18.642Z,7.68
2023-08-22T07:02:26.083Z,7.90
2023-08-22T07:04:35.863Z,5.60
2023-08-22T07:06:43.246Z,8.25
2023-08-22T07:08:51.214Z,7.90
2023-08-22T07:11:05.131Z,5.65
2023-08-22T07:13:14.723Z,6.93
2023-08-22T07:15:22.488Z,8.35
2023-08-22T07:17:30.334Z,7.57
2023-08-22T07:19:42.020Z,6.75
2023-08-22T07:21:50.714Z,9.25
2023-08-22T07:23:58.318Z,9.65
2023-08-22T07:26:05.962Z,6.25
2023-08-22T07:28:14.923Z,8.32
2023-08-22T07:30:22.923Z,7.80
2023-08-22T07:32:28.964Z,6.55
2023-08-22T07:34:37.646Z,6.85
2023-08-22T07:36:44.980Z,6.05
2023-08-22T07:38:52.470Z,6.28
2023-08-22T07:40:59.864Z,9.05
2023-08-22T07:43:07.653Z,8.93
2023-08-22T07:45:16.992Z,7.85
2023-08-22T07:47:24.937Z,7.40
2023-08-22T07:49:32.064Z,6.57
2023-08-22T07:51:39.864Z,7.47
2023-08-22T07:53:45.825Z,6.90
2023-08-22T07:55:53.463Z,8.07
2023-08-22T07:58:01.047Z,6.78
2023-08-22T08:00:11.145Z,7.95
2023-08-22T08:02:23.112Z,6.97
2023-08-22T08:04:30.578Z,6.60
2023-08-22T08:06:38.632Z,7.43
2023-08-22T08:08:46.695Z,7.05
2023-08-22T08:10:54.378Z,7.35
2023-08-22T08:13:02.171Z,6.53
2023-08-22T08:15:10.585Z,6.85
2023-08-22T08:17:19.553Z,7.85
2023-08-22T08:19:28.836Z,6.88
2023-08-22T08:21:36.532Z,6.50
2023-08-22T08:23:43.915Z,9.40
2023-08-22T08:25:51.713Z,6.78
2023-08-22T08:27:58.994Z,7.40
2023-08-22T08:30:07.819Z,6.32
2023-08-22T08:32:15.102Z,6.55
2023-08-22T08:34:22.538Z,5.93
2023-08-22T08:36:31.512Z,6.80
2023-08-22T08:38:39.306Z,6.55
2023-08-22T08:40:47.528Z,6.30
2023-08-22T08:42:55.206Z,6.40
2023-08-22T08:45:02.654Z,5.82
2023-08-22T08:47:12.134Z,7.00
2023-08-22T08:49:19.621Z,6.07
2023-08-22T08:51:27.840Z,5.53
2023-08-22T08:53:38.129Z,6.80
2023-08-22T08:55:46.070Z,7.53
2023-08-22T08:57:55.770Z,6.35
2023-08-22T09:00:06.073Z,6.40
2023-08-22T09:02:17.045Z,6.43
2023-08-22T09:04:25.450Z,8.13
2023-08-22T09:06:32.689Z,6.70
2023-08-22T09:08:42.020Z,7.65
2023-08-22T09:10:53.610Z,8.77
2023-08-22T09:13:07.394Z,6.85
2023-08-22T09:15:22.560Z,6.95
2023-08-22T09:17:33.172Z,6.25
2023-08-22T09:19:40.713Z,6.60
2023-08-22T09:22:01.772Z,6.80
2023-08-22T09:24:15.196Z,6.65
2023-08-22T09:26:25.094Z,7.35
2023-08-22T09:28:32.531Z,6.03
2023-08-22T09:30:38.705Z,5.03
2023-08-22T09:32:45.969Z,8.93
2023-08-22T09:35:04.779Z,7.18
2023-08-22T09:37:12.168Z,6.88
2023-08-22T09:39:20.892Z,7.82
2023-08-22T09:41:32.788Z,6.82
2023-08-22T09:43:45.081Z,5.95
2023-08-22T09:45:55.340Z,7.63
2023-08-22T09:48:04.563Z,4.60
2023-08-22T09:50:12.310Z,4.93
2023-08-22T09:52:20.208Z,6.55
2023-08-22T09:54:29.892Z,5.78
2023-08-22T09:56:37.484Z,5.20
2023-08-22T09:58:45.696Z,5.82
2023-08-22T10:00:56.364Z,6.75
2023-08-22T10:03:05.189Z,6.20
2023-08-22T10:05:14.719Z,6.28
2023-08-22T10:07:22.506Z,5.00
2023-08-22T10:09:32.247Z,7.38
2023-08-22T10:11:43.113Z,7.70
2023-08-22T10:13:51.374Z,7.30
2023-08-22T10:15:59.070Z,7.60
2023-08-22T10:18:07.610Z,6.38
2023-08-22T10:20:17.985Z,7.40
2023-08-22T10:22:25.431Z,7.43
2023-08-22T10:24:35.628Z,8.27
2023-08-22T10:27:02.094Z,8.88
2023-08-22T10:29:20.456Z,11.85
2023-08-22T10:31:28.450Z,7.82
2023-08-22T10:33:36.331Z,6.75
2023-08-22T10:35:44.100Z,6.97
2023-08-22T10:37:51.332Z,6.95
2023-08-22T10:40:03.739Z,7.47
2023-08-22T10:42:11.483Z,8.25
2023-08-22T10:44:28.850Z,7.97
2023-08-22T10:47:04.243Z,8.25
2023-08-22T10:49:12.707Z,9.45
2023-08-22T10:51:20.660Z,7.65
2023-08-22T10:53:30.264Z,9.55
2023-08-22T10:55:42.082Z,9.13
2023-08-22T10:57:50.842Z,7.75
2023-08-22T11:00:09.467Z,6.95
2023-08-22T11:02:18.163Z,9.57
2023-08-22T11:04:26.103Z,51.08
2023-08-22T11:06:33.862Z,84.25
2023-08-22T11:08:40.414Z,49.10
2023-08-22T11:10:50.376Z,44.03
2023-08-22T11:13:00.124Z,52.42
2023-08-22T11:15:08.219Z,65.35
2023-08-22T11:17:18.064Z,88.35
2023-08-22T11:19:25.829Z,78.07
2023-08-22T11:21:33.299Z,72.07
2023-08-22T11:23:41.812Z,57.90
2023-08-22T11:25:50.680Z,36.90
2023-08-22T11:27:58.941Z,43.03
2023-08-22T11:30:06.437Z,28.35
2023-08-22T11:32:24.576Z,38.30
2023-08-22T11:34:32.001Z,30.08
2023-08-22T11:36:41.437Z,15.45
2023-08-22T11:38:51.546Z,20.35
2023-08-22T11:41:02.002Z,20.52
2023-08-22T11:43:09.536Z,18.40
2023-08-22T11:45:19.482Z,17.13
2023-08-22T11:47:26.803Z,13.05
2023-08-22T11:49:45.063Z,12.77
2023-08-22T11:51:57.680Z,13.80
2023-08-22T11:54:05.389Z,14.32
2023-08-22T11:56:14.590Z,12.88
2023-08-22T11:58:22.340Z,12.98
2023-08-22T12:00:31.743Z,18.25
2023-08-22T12:02:39.459Z,16.67
2023-08-22T12:04:47.619Z,16.88
2023-08-22T12:07:04.219Z,16.83
2023-08-22T12:09:16.982Z,14.30
2023-08-22T12:11:33.075Z,17.45
2023-08-22T12:13:40.480Z,15.73
2023-08-22T12:15:50.664Z,14.43
2023-08-22T12:17:58.573Z,12.20
2023-08-22T12:20:06.409Z,15.60
2023-08-22T12:22:13.588Z,14.63
2023-08-22T12:24:21.326Z,12.23
2023-08-22T12:26:29.436Z,13.25
2023-08-22T12:28:40.049Z,14.23
2023-08-22T12:30:47.303Z,12.18
2023-08-22T12:32:53.724Z,15.73
2023-08-22T12:35:01.082Z,16.35
2023-08-22T12:37:08.666Z,12.90
2023-08-22T12:39:16.062Z,14.00
2023-08-22T12:41:23.702Z,13.82
2023-08-22T12:43:30.892Z,12.15
2023-08-22T12:45:40.577Z,14.50
2023-08-22T12:47:48.423Z,14.13
2023-08-22T12:49:54.784Z,12.10
2023-08-22T12:52:02.314Z,12.75
2023-08-22T12:54:09.875Z,14.77
2023-08-22T12:56:17.404Z,17.67
2023-08-22T12:58:25.203Z,15.52
2023-08-22T13:00:32.536Z,19.00
2023-08-22T13:02:42.257Z,19.05
2023-08-22T13:04:49.768Z,15.55
2023-08-22T13:06:57.308Z,17.77
2023-08-22T13:09:04.742Z,20.88
2023-08-22T13:11:12.438Z,20.73
2023-08-22T13:13:19.627Z,18.80
2023-08-22T13:15:27.362Z,16.85
2023-08-22T13:17:34.638Z,22.13
2023-08-22T13:19:44.184Z,19.67
2023-08-22T13:21:51.483Z,18.77
2023-08-22T13:23:58.971Z,18.98
2023-08-22T13:26:06.445Z,25.08
2023-08-22T13:28:14.179Z,17.73
2023-08-22T13:30:21.834Z,20.13
2023-08-22T13:32:29.987Z,20.08
2023-08-22T13:34:37.429Z,23.40
2023-08-22T13:36:46.964Z,22.83
2023-08-22T13:38:54.453Z,27.02
2023-08-22T13:41:02.149Z,25.75
2023-08-22T13:43:09.479Z,25.33
2023-08-22T13:45:17.130Z,25.15
2023-08-22T13:47:24.558Z,22.13
2023-08-22T13:49:30.917Z,20.27
2023-08-22T13:51:38.216Z,20.17
2023-08-22T13:53:47.742Z,18.55
2023-08-22T13:55:55.235Z,28.25
2023-08-22T13:58:04.103Z,27.30
2023-08-22T14:00:12.520Z,20.65
2023-08-22T14:02:21.972Z,18.63
2023-08-22T14:04:29.384Z,16.67
2023-08-22T14:06:37.076Z,17.13
2023-08-22T14:08:46.309Z,20.38
2023-08-22T14:10:54.105Z,21.10
2023-08-22T14:13:01.387Z,24.60
2023-08-22T14:15:09.544Z,26.13
2023-08-22T14:17:16.982Z,17.27
2023-08-22T14:19:24.841Z,15.43
2023-08-22T14:21:46.275Z,13.93
2023-08-22T14:23:55.989Z,12.13
2023-08-22T14:26:03.585Z,12.10
2023-08-22T14:28:11.422Z,12.40
2023-08-22T14:30:18.863Z,12.98
2023-08-22T14:32:26.403Z,11.75
2023-08-22T14:34:33.530Z,14.02
2023-08-22T14:36:41.477Z,11.25
2023-08-22T14:38:49.786Z,14.43
2023-08-22T14:41:03.010Z,24.67
2023-08-22T14:43:09.115Z,18.33
2023-08-22T14:45:17.017Z,13.50
2023-08-22T14:47:24.557Z,9.63
2023-08-22T14:49:32.098Z,9.38
2023-08-22T14:51:39.534Z,8.13
2023-08-22T14:53:47.230Z,8.60
2023-08-22T14:56:03.215Z,8.05
2023-08-22T14:58:13.162Z,9.60
2023-08-22T15:00:21.468Z,9.35
2023-08-22T15:02:29.368Z,10.60
2023-08-22T15:04:36.736Z,8.45
2023-08-22T15:06:44.351Z,9.27
2023-08-22T15:08:51.627Z,10.23
2023-08-22T15:10:59.530Z,7.88
2023-08-22T15:13:07.325Z,9.38
2023-08-22T15:15:15.017Z,11.85
2023-08-22T15:17:22.356Z,6.90
2023-08-22T15:19:30.055Z,9.30
2023-08-22T15:21:36.006Z,6.28
2023-08-22T15:23:47.122Z,10.85
2023-08-22T15:25:55.531Z,13.77
2023-08-22T15:28:03.740Z,12.07
2023-08-22T15:30:12.817Z,10.13
2023-08-22T15:32:21.314Z,9.25
2023-08-22T15:34:29.893Z,8.63
2023-08-22T15:36:37.540Z,6.80
2023-08-22T15:38:44.869Z,12.63
2023-08-22T15:40:53.846Z,13.23
2023-08-22T15:43:02.922Z,9.70
2023-08-22T15:45:12.364Z,13.07
2023-08-22T15:47:19.741Z,9.10
2023-08-22T15:49:27.798Z,11.25
2023-08-22T15:51:35.949Z,11.00
2023-08-22T15:53:43.842Z,11.52
2023-08-22T15:55:51.282Z,12.63
2023-08-22T15:57:58.984Z,10.50
2023-08-22T16:00:08.871Z,9.25
2023-08-22T16:02:16.103Z,7.85
2023-08-22T16:04:23.771Z,7.32
2023-08-22T16:06:31.687Z,7.97
2023-08-22T16:08:39.235Z,9.80
2023-08-22T16:10:46.776Z,7.82
2023-08-22T16:12:54.168Z,7.45
2023-08-22T16:15:01.711Z,8.00
2023-08-22T16:17:14.053Z,6.75
2023-08-22T16:19:22.268Z,8.57
2023-08-22T16:21:29.645Z,8.15
2023-08-22T16:23:35.870Z,8.10
2023-08-22T16:25:46.878Z,9.93
2023-08-22T16:27:54.804Z,8.80
2023-08-22T16:30:01.937Z,7.43
2023-08-22T16:32:11.205Z,12.68
2023-08-22T16:34:18.350Z,11.10
2023-08-22T16:36:25.757Z,10.73
2023-08-22T16:38:33.047Z,11.57
2023-08-22T16:40:41.368Z,8.75
2023-08-22T16:42:47.075Z,9.05
2023-08-22T16:44:54.326Z,10.27
2023-08-22T16:47:01.404Z,10.23
2023-08-22T16:49:10.974Z,11.35
2023-08-22T16:51:19.313Z,11.00
2023-08-22T16:53:26.973Z,10.02
2023-08-22T16:55:36.844Z,7.80
2023-08-22T16:57:45.005Z,7.88
2023-08-22T16:59:52.643Z,21.60
2023-08-22T17:02:01.723Z,8.95
2023-08-22T17:04:12.711Z,7.40
2023-08-22T17:06:20.325Z,7.35
2023-08-22T17:08:27.615Z,7.70
2023-08-22T17:10:35.920Z,6.75
2023-08-22T17:12:43.265Z,6.85
2023-08-22T17:14:50.648Z,5.70
2023-08-22T17:16:57.960Z,5.55
2023-08-22T17:19:06.025Z,7.00
2023-08-22T17:21:16.536Z,7.07
2023-08-22T17:23:22.898Z,5.33
2023-08-22T17:25:30.036Z,6.65
2023-08-22T17:27:37.335Z,6.97
2023-08-22T17:29:44.712Z,8.02
2023-08-22T17:31:52.321Z,9.30
2023-08-22T17:33:59.628Z,6.47
2023-08-22T17:36:07.517Z,6.38
2023-08-22T17:38:16.377Z,6.25
2023-08-22T17:40:23.422Z,6.85
2023-08-22T17:42:30.810Z,8.68
2023-08-22T17:44:38.282Z,5.88
2023-08-22T17:46:45.974Z,7.72
2023-08-22T17:48:53.225Z,6.68
2023-08-22T17:51:00.941Z,7.38
2023-08-22T17:53:08.820Z,8.93
2023-08-22T17:55:17.844Z,6.25
2023-08-22T17:57:24.922Z,8.80
2023-08-22T17:59:32.295Z,8.10
2023-08-22T18:01:39.240Z,9.05
2023-08-22T18:03:46.608Z,10.05
2023-08-22T18:06:00.613Z,7.03
2023-08-22T18:08:08.383Z,8.15
2023-08-22T18:10:18.292Z,7.60
2023-08-22T18:12:25.428Z,8.07
2023-08-22T18:14:32.567Z,6.75
2023-08-22T18:16:40.193Z,6.97
2023-08-22T18:18:47.325Z,6.22
2023-08-22T18:20:54.659Z,7.45
2023-08-22T18:23:01.909Z,7.03
2023-08-22T18:25:10.011Z,6.38
2023-08-22T18:27:18.989Z,13.32
2023-08-22T18:29:26.590Z,7.00
2023-08-22T18:31:33.933Z,8.13
2023-08-22T18:33:41.486Z,10.15
2023-08-22T18:35:48.840Z,5.93
2023-08-22T18:37:56.378Z,8.57
2023-08-22T18:40:04.022Z,6.78
2023-08-22T18:42:09.966Z,6.97
2023-08-22T18:44:19.125Z,6.65
2023-08-22T18:46:27.986Z,12.27
2023-08-22T18:48:34.070Z,6.88
2023-08-22T18:50:41.114Z,8.85
2023-08-22T18:52:48.424Z,6.32
2023-08-22T18:54:55.468Z,9.02
2023-08-22T18:57:03.239Z,10.07
2023-08-22T18:59:10.900Z,7.85
2023-08-22T19:01:21.037Z,7.93
2023-08-22T19:03:28.944Z,7.25
2023-08-22T19:05:36.225Z,8.02
2023-08-22T19:07:43.458Z,6.38
2023-08-22T19:09:50.944Z,8.55
2023-08-22T19:11:58.280Z,7.93
2023-08-22T19:14:05.630Z,6.55
2023-08-22T19:16:12.725Z,8.05
2023-08-22T19:18:22.018Z,8.20
2023-08-22T19:20:29.174Z,7.28
2023-08-22T19:22:36.411Z,7.05
2023-08-22T19:24:43.470Z,6.85
2023-08-22T19:26:50.975Z,6.50
2023-08-22T19:28:58.036Z,6.78
2023-08-22T19:31:05.660Z,8.38
2023-08-22T19:33:18.635Z,7.18
2023-08-22T19:35:30.540Z,8.50
2023-08-22T19:37:37.640Z,7.65
2023-08-22T19:39:45.463Z,7.00
2023-08-22T19:41:52.502Z,5.53
2023-08-22T19:43:59.831Z,8.40
2023-08-22T19:46:06.879Z,10.57
2023-08-22T19:48:12.996Z,9.52
2023-08-22T19:50:23.727Z,11.30
2023-08-22T19:52:32.885Z,7.60
2023-08-22T19:54:39.840Z,6.50
2023-08-22T19:56:47.034Z,6.53
2023-08-22T19:58:54.192Z,7.25
2023-08-22T20:01:01.635Z,6.05
2023-08-22T20:03:09.180Z,9.23
2023-08-22T20:05:17.812Z,10.40
2023-08-22T20:07:24.887Z,5.70
2023-08-22T20:09:33.722Z,6.40
2023-08-22T20:11:40.579Z,7.25
2023-08-22T20:13:47.524Z,8.60
2023-08-22T20:15:54.196Z,10.38
2023-08-22T20:18:00.922Z,6.93
2023-08-22T20:20:09.348Z,6.65
2023-08-22T20:22:15.963Z,6.15
2023-08-22T20:24:23.071Z,9.20
2023-08-22T20:26:32.334Z,7.72
2023-08-22T20:28:39.516Z,7.45
2023-08-22T20:30:53.629Z,5.97
2023-08-22T20:33:01.343Z,9.20
2023-08-22T20:35:08.943Z,7.05
2023-08-22T20:37:14.542Z,6.25
2023-08-22T20:39:21.979Z,6.72
2023-08-22T20:41:32.255Z,6.72
2023-08-22T20:43:39.620Z,6.97
2023-08-22T20:45:46.499Z,6.72
2023-08-22T20:47:53.699Z,9.00
2023-08-22T20:50:00.649Z,8.02
2023-08-22T20:52:08.446Z,7.47
2023-08-22T20:54:15.273Z,7.75
2023-08-22T20:56:22.506Z,6.00
2023-08-22T20:58:31.023Z,8.43
2023-08-22T21:00:38.146Z,8.70
2023-08-22T21:02:46.404Z,9.50
2023-08-22T21:04:53.777Z,7.70
2023-08-22T21:07:00.776Z,7.38
2023-08-22T21:09:06.669Z,6.20
2023-08-22T21:11:13.596Z,7.97
2023-08-22T21:13:20.701Z,5.97
2023-08-22T21:15:27.954Z,8.73
2023-08-22T21:17:35.484Z,9.63
2023-08-22T21:19:42.269Z,7.53
2023-08-22T21:21:49.401Z,8.75
2023-08-22T21:23:56.224Z,8.15
2023-08-22T21:26:03.249Z,9.07
2023-08-22T21:28:10.427Z,7.50
2023-08-22T21:30:17.922Z,7.72
2023-08-22T21:32:26.563Z,10.65
2023-08-22T21:34:32.386Z,9.77
2023-08-22T21:36:39.123Z,9.75
2023-08-22T21:38:46.340Z,8.75
2023-08-22T21:40:53.275Z,9.50
2023-08-22T21:43:00.449Z,8.93
2023-08-22T21:45:15.118Z,7.55
2023-08-22T21:47:22.182Z,8.38
2023-08-22T21:49:30.904Z,10.15
2023-08-22T21:51:38.036Z,7.88
2023-08-22T21:53:44.854Z,8.55
2023-08-22T21:55:51.989Z,9.45
2023-08-22T21:57:58.821Z,8.52
2023-08-22T22:00:07.221Z,13.63
2023-08-22T22:02:14.617Z,13.82
2023-08-22T22:04:21.889Z,12.23
2023-08-22T22:06:30.556Z,9.50
2023-08-22T22:08:37.841Z,8.60
2023-08-22T22:10:44.615Z,9.88
2023-08-22T22:12:51.696Z,9.73
2023-08-22T22:14:58.617Z,10.10
2023-08-22T22:17:05.908Z,12.57
2023-08-22T22:19:13.137Z,13.55
2023-08-22T22:21:20.335Z,10.52
2023-08-22T22:23:29.237Z,12.25
2023-08-22T22:25:36.524Z,15.07
2023-08-22T22:27:44.361Z,13.13
2023-08-22T22:29:52.526Z,15.65
2023-08-22T22:31:59.705Z,13.95
2023-08-22T22:34:08.066Z,15.00
2023-08-22T22:36:14.940Z,14.15
2023-08-22T22:38:21.865Z,15.35
2023-08-22T22:40:29.766Z,10.70
2023-08-22T22:42:36.639Z,12.40
2023-08-22T22:44:42.340Z,13.13
2023-08-22T22:46:49.212Z,11.20
2023-08-22T22:48:56.392Z,10.38
2023-08-22T22:51:03.264Z,10.43
2023-08-22T22:53:09.273Z,13.20
2023-08-22T22:55:16.051Z,11.05
2023-08-22T22:57:24.796Z,13.05
2023-08-22T22:59:31.638Z,13.40
2023-08-22T23:01:38.714Z,10.02
2023-08-22T23:03:46.003Z,9.93
2023-08-22T23:05:53.024Z,13.32
2023-08-22T23:08:00.001Z,10.90
2023-08-22T23:10:07.008Z,11.57
2023-08-22T23:12:14.469Z,14.45
2023-08-22T23:14:23.183Z,15.00
2023-08-22T23:16:30.291Z,17.58
2023-08-22T23:18:37.135Z,15.77
2023-08-22T23:20:44.631Z,13.73
2023-08-22T23:22:52.778Z,14.43
2023-08-22T23:25:00.326Z,13.30
2023-08-22T23:27:07.968Z,14.20
2023-08-22T23:29:15.658Z,14.50
2023-08-22T23:31:24.760Z,14.73
2023-08-22T23:33:32.479Z,13.82
2023-08-22T23:35:39.915Z,14.68
2023-08-22T23:37:46.155Z,17.33
2023-08-22T23:39:54.800Z,13.98
2023-08-22T23:42:02.385Z,14.60
2023-08-22T23:44:13.916Z,17.33
2023-08-22T23:48:29.766Z,15.05
2023-08-22T23:50:37.569Z,14.02
2023-08-22T23:52:45.100Z,13.77
2023-08-22T23:54:52.742Z,15.40
2023-08-22T23:57:00.185Z,13.52
2023-08-22T23:59:07.821Z,13.98
